Time;durP1;ratioP1;P1;durP2;ratioP2;P2;SDS_P1;SDS_P2;PMS_P1;PMS_P2;Temp;Humidity;BMP_temperature;BMP_pressure;BME280_temperature;BME280_humidity;BME280_pressure;Samples;Min_cycle;Max_cycle;Signal;HPM_P1;HPM_P2
2022/08/03 00:00:23;;;;;;;3.13;2.83;;;;;;;;;;5055224;28;20052;-67
2022/08/03 00:02:49;;;;;;;4.05;3.00;;;;;;;;;;5054995;28;20049;-67
2022/08/03 00:05:16;;;;;;;4.65;2.63;;;;;;;;;;5055420;28;20051;-67
2022/08/03 00:07:43;;;;;;;4.38;3.13;;;;;;;;;;5055111;28;20041;-67
2022/08/03 00:10:09;;;;;;;4.70;2.92;;;;;;;;;;5055457;28;20060;-71
2022/08/03 00:12:36;;;;;;;3.78;2.95;;;;;;;;;;5021434;28;20059;-69
2022/08/03 00:15:03;;;;;;;4.57;3.33;;;;;;;;;;5054242;28;20056;-67
2022/08/03 00:17:36;;;;;;;3.50;2.97;;;;;;;;;;5062791;28;20045;-67
2022/08/03 00:20:18;;;;;;;4.60;3.20;;;;;;;;;;5066113;28;20056;-67
2022/08/03 00:22:45;;;;;;;3.17;2.88;;;;;;;;;;5055066;28;20059;-67
2022/08/03 00:25:12;;;;;;;2.88;2.63;;;;;;;;;;5054777;28;20059;-67
2022/08/03 00:27:38;;;;;;;5.63;3.85;;;;;;;;;;5054889;28;20052;-67
2022/08/03 00:30:06;;;;;;;3.88;2.55;;;;;;;;;;5054757;28;20504;-68
2022/08/03 00:32:32;;;;;;;4.47;2.70;;;;;;;;;;5054792;28;20053;-68
2022/08/03 00:34:59;;;;;;;3.33;2.85;;;;;;;;;;5054687;28;20053;-67
2022/08/03 00:37:33;;;;;;;3.58;2.55;;;;;;;;;;5054793;28;20045;-67
2022/08/03 00:40:17;;;;;;;3.00;2.80;;;;;;;;;;5054462;28;20510;-68
2022/08/03 00:42:50;;;;;;;4.05;2.63;;;;;;;;;;5054695;28;20060;-67
2022/08/03 00:45:17;;;;;;;6.50;3.53;;;;;;;;;;5054731;28;20049;-68
2022/08/03 00:47:44;;;;;;;3.30;3.00;;;;;;;;;;5054542;28;20045;-68
2022/08/03 00:50:11;;;;;;;3.00;2.70;;;;;;;;;;5054515;28;20477;-68
2022/08/03 00:52:38;;;;;;;3.33;2.78;;;;;;;;;;5036904;28;20057;-67
2022/08/03 00:55:05;;;;;;;3.35;3.05;;;;;;;;;;5054370;28;20098;-68
2022/08/03 00:57:32;;;;;;;3.53;2.80;;;;;;;;;;5053825;28;20071;-67
2022/08/03 00:59:59;;;;;;;4.65;2.80;;;;;;;;;;5054504;28;20049;-67
2022/08/03 01:02:29;;;;;;;3.45;3.15;;;;;;;;;;5036361;28;20059;-67
2022/08/03 01:04:56;;;;;;;3.45;2.70;;;;;;;;;;5036866;28;20045;-67
2022/08/03 01:07:59;;;;;;;4.53;3.42;;;;;;;;;;5054288;28;20044;-67
2022/08/03 01:10:50;;;;;;;3.97;3.30;;;;;;;;;;5005581;28;20141;-68
2022/08/03 01:13:22;;;;;;;4.20;3.30;;;;;;;;;;5054049;28;20053;-68
2022/08/03 01:16:17;;;;;;;4.03;2.97;;;;;;;;;;5066728;28;20566;-68
2022/08/03 01:19:25;;;;;;;3.45;3.10;;;;;;;;;;5052241;28;20467;-67
2022/08/03 01:22:07;;;;;;;3.88;2.67;;;;;;;;;;5052170;28;20048;-68
2022/08/03 01:24:54;;;;;;;3.70;3.35;;;;;;;;;;5053604;28;20550;-68
2022/08/03 01:27:22;;;;;;;3.45;2.67;;;;;;;;;;5021131;28;20045;-68
2022/08/03 01:29:49;;;;;;;3.45;2.90;;;;;;;;;;5019525;28;20048;-68
2022/08/03 01:32:17;;;;;;;3.63;3.13;;;;;;;;;;5053730;28;20053;-68
2022/08/03 01:35:15;;;;;;;4.07;3.05;;;;;;;;;;5053095;28;20082;-68
2022/08/03 01:38:01;;;;;;;3.33;3.03;;;;;;;;;;5053716;28;20467;-67
2022/08/03 01:40:28;;;;;;;4.38;3.20;;;;;;;;;;5035714;28;20048;-68
2022/08/03 01:42:55;;;;;;;3.50;3.20;;;;;;;;;;5019406;28;20056;-68
2022/08/03 01:45:22;;;;;;;4.03;3.30;;;;;;;;;;5035637;28;20493;-68
2022/08/03 01:47:49;;;;;;;3.83;3.35;;;;;;;;;;5018933;28;20412;-67
2022/08/03 01:50:20;;;;;;;4.15;3.42;;;;;;;;;;5035633;28;20053;-68
2022/08/03 01:52:46;;;;;;;3.05;2.70;;;;;;;;;;5035320;28;20059;-68
2022/08/03 01:55:13;;;;;;;5.43;3.10;;;;;;;;;;5052576;28;20045;-68
2022/08/03 01:57:40;;;;;;;3.00;2.80;;;;;;;;;;5052909;28;20067;-68
2022/08/03 02:00:26;;;;;;;4.65;3.03;;;;;;;;;;5052958;28;20060;-68
2022/08/03 02:02:53;;;;;;;3.75;3.05;;;;;;;;;;5036283;28;20049;-68
2022/08/03 02:05:20;;;;;;;6.65;3.05;;;;;;;;;;5052529;28;20049;-68
2022/08/03 02:07:47;;;;;;;3.75;3.22;;;;;;;;;;5052254;28;20056;-68
2022/08/03 02:10:15;;;;;;;3.90;3.50;;;;;;;;;;5052600;28;20091;-68
2022/08/03 02:13:00;;;;;;;3.30;3.00;;;;;;;;;;5053062;28;20055;-68
2022/08/03 02:15:27;;;;;;;3.17;2.88;;;;;;;;;;5052966;28;20049;-68
2022/08/03 02:17:54;;;;;;;5.15;2.97;;;;;;;;;;5051152;28;20052;-68
2022/08/03 02:20:20;;;;;;;4.28;3.35;;;;;;;;;;5051526;28;20500;-68
2022/08/03 02:22:47;;;;;;;3.90;3.22;;;;;;;;;;5053002;28;20049;-68
2022/08/03 02:25:16;;;;;;;5.38;3.60;;;;;;;;;;5051397;28;20090;-68
2022/08/03 02:27:50;;;;;;;4.97;3.38;;;;;;;;;;5050979;28;20055;-68
2022/08/03 02:30:17;;;;;;;3.33;3.03;;;;;;;;;;5067450;28;20424;-68
2022/08/03 02:32:51;;;;;;;4.50;3.67;;;;;;;;;;5051427;28;20053;-68
2022/08/03 02:35:18;;;;;;;3.17;2.92;;;;;;;;;;5051154;28;20048;-68
2022/08/03 02:37:47;;;;;;;4.22;3.80;;;;;;;;;;5051333;28;20056;-68
2022/08/03 02:40:15;;;;;;;3.38;3.08;;;;;;;;;;5034954;28;20052;-68
2022/08/03 02:42:42;;;;;;;4.65;3.55;;;;;;;;;;5067482;28;20052;-68
2022/08/03 02:45:12;;;;;;;3.80;3.40;;;;;;;;;;5018197;28;20139;-68
2022/08/03 02:47:40;;;;;;;5.38;3.45;;;;;;;;;;5035325;28;20462;-68
2022/08/03 02:50:21;;;;;;;4.53;3.38;;;;;;;;;;5036360;28;20095;-67
2022/08/03 02:52:48;;;;;;;4.28;3.10;;;;;;;;;;5018057;28;20522;-68
2022/08/03 02:55:15;;;;;;;4.05;3.20;;;;;;;;;;5034465;28;20056;-67
2022/08/03 02:57:42;;;;;;;4.07;3.75;;;;;;;;;;5018539;28;20049;-68
2022/08/03 03:00:09;;;;;;;4.70;3.60;;;;;;;;;;5017882;28;20060;-68
2022/08/03 03:02:35;;;;;;;6.10;3.53;;;;;;;;;;5034268;28;20500;-68
2022/08/03 03:05:02;;;;;;;3.65;3.35;;;;;;;;;;5067434;28;20052;-68
2022/08/03 03:07:49;;;;;;;3.90;3.60;;;;;;;;;;5050506;28;20102;-67
2022/08/03 03:10:21;;;;;;;3.70;3.03;;;;;;;;;;5051932;28;20171;-67
2022/08/03 03:12:55;;;;;;;3.80;3.10;;;;;;;;;;5051939;28;20108;-67
2022/08/03 03:15:23;;;;;;;4.47;3.38;;;;;;;;;;5067115;28;20067;-67
2022/08/03 03:17:50;;;;;;;4.00;3.60;;;;;;;;;;5050342;28;20048;-67
2022/08/03 03:20:17;;;;;;;4.05;3.17;;;;;;;;;;5050261;28;20045;-67
2022/08/03 03:22:55;;;;;;;3.92;3.60;;;;;;;;;;5050473;28;20053;-67
2022/08/03 03:25:22;;;;;;;7.32;3.72;;;;;;;;;;5017590;28;20053;-67
2022/08/03 03:27:48;;;;;;;5.35;3.72;;;;;;;;;;5033886;28;20313;-67
2022/08/03 03:30:16;;;;;;;4.13;3.38;;;;;;;;;;5017948;28;20400;-68
2022/08/03 03:32:43;;;;;;;4.97;3.13;;;;;;;;;;5033897;28;20049;-67
2022/08/03 03:35:09;;;;;;;4.10;3.40;;;;;;;;;;5018227;28;20045;-68
2022/08/03 03:37:36;;;;;;;3.53;3.13;;;;;;;;;;5052204;28;20055;-67
2022/08/03 03:40:03;;;;;;;3.70;3.08;;;;;;;;;;5051373;28;20416;-67
2022/08/03 03:42:30;;;;;;;5.25;3.72;;;;;;;;;;5051406;28;20053;-67
2022/08/03 03:44:56;;;;;;;3.42;3.13;;;;;;;;;;5033901;28;20053;-67
2022/08/03 03:47:24;;;;;;;3.88;3.47;;;;;;;;;;5033897;28;20107;-68
2022/08/03 03:49:58;;;;;;;3.50;3.20;;;;;;;;;;5051342;28;20048;-68
2022/08/03 03:52:25;;;;;;;4.13;3.20;;;;;;;;;;5050162;28;20059;-67
2022/08/03 03:54:51;;;;;;;7.13;3.85;;;;;;;;;;5051412;28;20056;-68
2022/08/03 03:57:22;;;;;;;4.85;3.38;;;;;;;;;;5051566;28;20430;-67
2022/08/03 03:59:49;;;;;;;4.55;3.75;;;;;;;;;;5051417;28;20083;-65
2022/08/03 04:02:16;;;;;;;4.20;3.40;;;;;;;;;;5051420;28;20057;-66
2022/08/03 04:13:08;;;;;;;4.75;3.72;;;;;;;;;;5016749;28;20087;-66
2022/08/03 04:15:36;;;;;;;4.13;3.42;;;;;;;;;;5014068;28;20058;-66
2022/08/03 04:18:03;;;;;;;6.53;4.13;;;;;;;;;;5013575;28;20050;-66
2022/08/03 04:20:31;;;;;;;4.18;3.35;;;;;;;;;;5013678;28;20050;-66
2022/08/03 04:23:01;;;;;;;3.80;3.50;;;;;;;;;;4997551;28;20424;-67
2022/08/03 04:25:30;;;;;;;4.25;3.80;;;;;;;;;;5030943;28;20500;-66
2022/08/03 04:27:58;;;;;;;5.20;4.43;;;;;;;;;;5013723;28;20050;-68
2022/08/03 04:30:47;;;;;;;6.15;3.92;;;;;;;;;;5019138;28;20054;-68
2022/08/03 04:33:13;;;;;;;5.30;3.63;;;;;;;;;;5036416;28;20053;-68
2022/08/03 04:35:43;;;;;;;7.85;3.97;;;;;;;;;;5038411;28;20091;-68
2022/08/03 04:38:28;;;;;;;4.03;3.63;;;;;;;;;;5039413;28;20124;-68
2022/08/03 04:40:55;;;;;;;4.93;3.47;;;;;;;;;;5047095;28;20056;-68
2022/08/03 04:43:21;;;;;;;6.68;3.80;;;;;;;;;;5057030;28;20055;-68
2022/08/03 04:45:49;;;;;;;3.72;3.17;;;;;;;;;;5056850;28;20064;-67
2022/08/03 04:48:15;;;;;;;4.95;3.60;;;;;;;;;;5039914;28;20510;-68
2022/08/03 04:50:42;;;;;;;4.53;3.80;;;;;;;;;;5040319;28;20071;-68
2022/08/03 04:53:08;;;;;;;4.97;3.92;;;;;;;;;;5074701;28;20128;-68
2022/08/03 04:55:35;;;;;;;5.47;3.13;;;;;;;;;;5074416;28;20053;-68
2022/08/03 04:58:02;;;;;;;4.20;3.80;;;;;;;;;;5068202;28;20419;-68
2022/08/03 05:00:32;;;;;;;3.78;3.10;;;;;;;;;;5054332;28;20053;-68
2022/08/03 05:02:58;;;;;;;4.70;3.50;;;;;;;;;;5054775;28;20044;-68
2022/08/03 05:05:25;;;;;;;5.88;3.80;;;;;;;;;;5054151;28;20055;-68
2022/08/03 05:08:03;;;;;;;6.85;3.88;;;;;;;;;;5054150;28;20124;-68
2022/08/03 05:10:36;;;;;;;4.35;3.90;;;;;;;;;;5054551;28;20049;-68
2022/08/03 05:13:03;;;;;;;4.55;3.53;;;;;;;;;;5054019;28;20067;-68
2022/08/03 05:15:29;;;;;;;4.20;3.78;;;;;;;;;;5054001;28;20060;-69
2022/08/03 05:17:56;;;;;;;7.57;4.03;;;;;;;;;;5053839;28;20053;-68
2022/08/03 05:20:23;;;;;;;5.30;4.55;;;;;;;;;;5053771;28;20059;-69
2022/08/03 05:22:49;;;;;;;6.03;3.63;;;;;;;;;;5052796;28;20496;-69
2022/08/03 05:25:16;;;;;;;4.18;3.38;;;;;;;;;;5054915;28;20112;-69
2022/08/03 05:27:46;;;;;;;4.10;3.63;;;;;;;;;;5057300;28;20123;-69
2022/08/03 05:30:13;;;;;;;6.63;4.43;;;;;;;;;;5039589;28;20527;-69
2022/08/03 05:32:59;;;;;;;4.85;3.67;;;;;;;;;;5057092;28;20045;-69
2022/08/03 05:35:27;;;;;;;8.35;3.65;;;;;;;;;;5057440;28;20442;-69
2022/08/03 05:38:14;;;;;;;4.85;3.70;;;;;;;;;;5056541;28;20049;-69
2022/08/03 05:40:53;;;;;;;4.38;3.97;;;;;;;;;;5057229;28;20048;-68
2022/08/03 05:43:40;;;;;;;5.72;4.05;;;;;;;;;;5057707;28;20048;-68
2022/08/03 05:46:07;;;;;;;5.18;3.90;;;;;;;;;;5056975;28;20059;-67
2022/08/03 05:48:38;;;;;;;4.57;3.85;;;;;;;;;;5057308;28;20045;-67
2022/08/03 05:51:06;;;;;;;4.47;3.67;;;;;;;;;;5056035;28;20044;-67
2022/08/03 05:53:33;;;;;;;4.25;3.80;;;;;;;;;;5056649;28;20049;-67
2022/08/03 05:56:00;;;;;;;4.63;3.42;;;;;;;;;;5057375;28;20073;-67
2022/08/03 05:58:42;;;;;;;5.75;3.85;;;;;;;;;;5055875;28;20041;-67
2022/08/03 06:01:09;;;;;;;6.32;3.88;;;;;;;;;;5056183;28;20052;-67
2022/08/03 06:03:36;;;;;;;3.67;3.35;;;;;;;;;;5038209;28;20061;-69
2022/08/03 06:06:02;;;;;;;4.35;3.67;;;;;;;;;;5052658;28;20053;-70
2022/08/03 06:08:29;;;;;;;5.90;3.65;;;;;;;;;;5051809;28;20049;-69
2022/08/03 06:10:56;;;;;;;6.75;3.50;;;;;;;;;;5050993;28;20082;-69
2022/08/03 06:13:22;;;;;;;4.93;3.42;;;;;;;;;;5050905;28;20053;-67
2022/08/03 06:15:49;;;;;;;6.25;3.95;;;;;;;;;;5050547;28;20456;-67
2022/08/03 06:18:16;;;;;;;8.85;5.18;;;;;;;;;;5050629;28;20067;-67
2022/08/03 06:20:42;;;;;;;5.63;3.80;;;;;;;;;;5050757;28;20045;-67
2022/08/03 06:23:09;;;;;;;6.45;3.60;;;;;;;;;;5050842;28;20049;-67
2022/08/03 06:25:41;;;;;;;4.22;3.22;;;;;;;;;;5050734;28;20053;-67
2022/08/03 06:28:08;;;;;;;5.43;3.40;;;;;;;;;;5050256;28;20045;-67
2022/08/03 06:30:44;;;;;;;4.07;3.20;;;;;;;;;;5050782;28;20057;-67
2022/08/03 06:33:11;;;;;;;4.07;3.42;;;;;;;;;;5050625;28;20056;-67
2022/08/03 06:35:38;;;;;;;3.35;3.00;;;;;;;;;;5050863;28;20059;-67
2022/08/03 06:38:07;;;;;;;6.50;3.80;;;;;;;;;;5050302;28;20049;-67
2022/08/03 06:40:38;;;;;;;4.20;3.00;;;;;;;;;;5050006;28;20080;-67
2022/08/03 06:43:06;;;;;;;6.20;3.00;;;;;;;;;;5049915;28;20056;-68
2022/08/03 06:45:38;;;;;;;4.00;3.08;;;;;;;;;;5050599;28;20088;-67
2022/08/03 06:48:09;;;;;;;5.03;3.28;;;;;;;;;;5032624;28;20049;-68
2022/08/03 06:50:40;;;;;;;4.35;3.00;;;;;;;;;;5050278;28;20053;-67
2022/08/03 06:53:08;;;;;;;5.72;3.45;;;;;;;;;;5050478;28;20128;-67
2022/08/03 06:55:45;;;;;;;4.47;2.70;;;;;;;;;;5049677;28;20053;-68
2022/08/03 06:58:17;;;;;;;10.55;3.58;;;;;;;;;;5050053;28;20342;-68
2022/08/03 07:00:44;;;;;;;2.92;2.72;;;;;;;;;;5050012;28;20061;-68
2022/08/03 07:03:11;;;;;;;4.03;3.25;;;;;;;;;;5049585;28;20063;-66
2022/08/03 07:05:37;;;;;;;5.60;3.15;;;;;;;;;;5050355;28;20060;-65
2022/08/03 07:08:04;;;;;;;6.82;2.85;;;;;;;;;;5049344;28;20071;-67
2022/08/03 07:10:31;;;;;;;4.88;3.05;;;;;;;;;;5050297;28;20048;-65
2022/08/03 07:12:57;;;;;;;4.55;3.22;;;;;;;;;;5049793;28;20041;-65
2022/08/03 07:15:24;;;;;;;5.35;2.92;;;;;;;;;;5049855;28;20421;-65
2022/08/03 07:18:11;;;;;;;4.50;3.13;;;;;;;;;;5048596;28;20266;-65
2022/08/03 07:20:37;;;;;;;3.33;2.63;;;;;;;;;;5049262;28;20100;-65
2022/08/03 07:23:04;;;;;;;4.20;2.85;;;;;;;;;;5049460;28;20507;-66
2022/08/03 07:25:31;;;;;;;4.40;3.03;;;;;;;;;;5038622;28;20051;-66
2022/08/03 07:27:57;;;;;;;3.10;2.65;;;;;;;;;;5043455;28;20051;-65
2022/08/03 07:30:24;;;;;;;4.03;2.90;;;;;;;;;;5036062;28;20060;-66
2022/08/03 07:32:51;;;;;;;4.18;2.88;;;;;;;;;;5038610;28;20053;-65
2022/08/03 07:35:17;;;;;;;4.30;2.70;;;;;;;;;;5038867;28;20045;-65
2022/08/03 07:37:52;;;;;;;2.63;2.42;;;;;;;;;;5036817;28;20237;-65
2022/08/03 07:40:20;;;;;;;2.95;2.20;;;;;;;;;;5047790;28;20052;-66
2022/08/03 07:42:47;;;;;;;3.08;2.45;;;;;;;;;;5051046;28;20091;-66
2022/08/03 07:45:22;;;;;;;3.00;2.20;;;;;;;;;;5051493;28;20088;-66
2022/08/03 07:47:49;;;;;;;2.70;2.17;;;;;;;;;;5051506;28;20049;-66
2022/08/03 07:50:19;;;;;;;2.58;2.17;;;;;;;;;;5051701;28;20053;-66
2022/08/03 07:52:48;;;;;;;3.90;2.25;;;;;;;;;;5051006;28;20049;-66
2022/08/03 07:55:20;;;;;;;3.28;2.38;;;;;;;;;;5031425;28;20057;-66
2022/08/03 07:57:47;;;;;;;2.90;2.30;;;;;;;;;;5031493;28;20049;-66
2022/08/03 08:00:18;;;;;;;3.42;2.13;;;;;;;;;;5013932;28;20046;-66
2022/08/03 08:02:44;;;;;;;2.95;2.65;;;;;;;;;;5049508;28;20139;-66
2022/08/03 08:05:11;;;;;;;3.85;2.33;;;;;;;;;;5051517;28;20049;-66
2022/08/03 08:07:38;;;;;;;2.65;2.00;;;;;;;;;;5053348;28;20139;-67
2022/08/03 08:10:07;;;;;;;2.35;2.15;;;;;;;;;;5055030;28;20494;-67
2022/08/03 08:12:34;;;;;;;4.38;2.10;;;;;;;;;;5037436;28;20057;-67
2022/08/03 08:15:01;;;;;;;3.00;2.03;;;;;;;;;;5055351;28;20049;-66
2022/08/03 08:17:28;;;;;;;2.17;1.98;;;;;;;;;;5055464;28;20055;-66
2022/08/03 08:19:55;;;;;;;2.90;2.10;;;;;;;;;;5055192;28;20060;-67
2022/08/03 08:22:23;;;;;;;2.67;1.70;;;;;;;;;;5054923;28;20048;-66
2022/08/03 08:24:57;;;;;;;2.13;1.63;;;;;;;;;;5035088;28;20115;-66
2022/08/03 08:27:23;;;;;;;3.00;1.67;;;;;;;;;;5035358;28;20053;-67
2022/08/03 08:29:50;;;;;;;2.60;2.03;;;;;;;;;;5034939;28;20049;-67
2022/08/03 08:32:21;;;;;;;3.42;1.52;;;;;;;;;;5035212;28;20053;-67
2022/08/03 08:34:48;;;;;;;1.95;1.73;;;;;;;;;;5053860;28;20060;-66
2022/08/03 08:37:15;;;;;;;2.75;1.88;;;;;;;;;;5054837;28;20393;-66
2022/08/03 08:39:41;;;;;;;4.05;2.08;;;;;;;;;;5054743;28;20045;-67
2022/08/03 08:42:09;;;;;;;5.28;3.25;;;;;;;;;;5054861;28;20053;-67
2022/08/03 08:44:35;;;;;;;3.15;2.25;;;;;;;;;;5036888;28;20056;-66
2022/08/03 08:47:03;;;;;;;3.40;1.73;;;;;;;;;;5054972;28;20376;-66
2022/08/03 08:49:29;;;;;;;2.42;1.88;;;;;;;;;;5054692;28;20052;-65
2022/08/03 08:51:56;;;;;;;2.97;1.95;;;;;;;;;;5020364;28;20536;-66
2022/08/03 08:54:26;;;;;;;1.48;1.38;;;;;;;;;;5037154;28;20444;-66
2022/08/03 08:56:53;;;;;;;2.15;1.60;;;;;;;;;;5069772;28;20500;-66
2022/08/03 08:59:20;;;;;;;2.45;1.65;;;;;;;;;;5052883;28;20045;-66
2022/08/03 09:01:46;;;;;;;2.92;1.55;;;;;;;;;;5053177;28;20049;-66
2022/08/03 09:04:13;;;;;;;5.13;1.55;;;;;;;;;;5053753;28;20492;-66
2022/08/03 09:06:40;;;;;;;2.38;1.63;;;;;;;;;;5054528;28;20045;-68
2022/08/03 09:09:19;;;;;;;1.70;1.60;;;;;;;;;;5052174;28;20041;-69
2022/08/03 09:12:06;;;;;;;1.95;1.80;;;;;;;;;;5054614;28;20142;-69
2022/08/03 09:14:54;;;;;;;3.63;1.65;;;;;;;;;;5026223;28;20060;-66
2022/08/03 09:17:40;;;;;;;3.22;1.60;;;;;;;;;;5052695;28;20462;-67
2022/08/03 09:20:08;;;;;;;3.28;1.42;;;;;;;;;;5051478;28;20508;-67
2022/08/03 09:22:35;;;;;;;1.67;1.58;;;;;;;;;;5047372;28;20052;-66
2022/08/03 09:25:04;;;;;;;1.77;1.48;;;;;;;;;;5050333;28;20063;-66
2022/08/03 09:27:51;;;;;;;1.60;1.50;;;;;;;;;;5051995;28;20049;-66
2022/08/03 09:30:19;;;;;;;2.20;1.75;;;;;;;;;;5052954;28;20076;-66
2022/08/03 09:33:02;;;;;;;3.72;1.60;;;;;;;;;;5049291;28;20069;-66
2022/08/03 09:35:29;;;;;;;2.25;1.23;;;;;;;;;;5053132;28;20053;-66
2022/08/03 09:38:24;;;;;;;1.80;1.48;;;;;;;;;;5051168;28;20610;-66
2022/08/03 09:40:52;;;;;;;1.95;1.35;;;;;;;;;;5052512;28;20049;-65
2022/08/03 09:43:26;;;;;;;1.73;1.52;;;;;;;;;;5051677;28;20048;-66
2022/08/03 09:46:01;;;;;;;2.25;1.48;;;;;;;;;;5034659;28;20496;-66
2022/08/03 09:48:29;;;;;;;1.83;1.30;;;;;;;;;;5063816;28;20053;-66
2022/08/03 09:50:58;;;;;;;3.03;1.40;;;;;;;;;;5044301;28;20131;-66
2022/08/03 09:53:42;;;;;;;2.28;1.10;;;;;;;;;;5048237;28;20049;-66
2022/08/03 09:56:46;;;;;;;1.75;1.30;;;;;;;;;;5053025;28;20107;-66
2022/08/03 09:59:21;;;;;;;1.60;1.17;;;;;;;;;;5052815;28;20515;-68
2022/08/03 10:01:48;;;;;;;1.50;1.40;;;;;;;;;;5029491;28;20401;-69
2022/08/03 10:04:15;;;;;;;2.03;1.20;;;;;;;;;;5046054;28;20045;-69
2022/08/03 10:06:44;;;;;;;4.57;1.60;;;;;;;;;;5052782;28;20064;-68
2022/08/03 10:09:15;;;;;;;4.85;1.50;;;;;;;;;;5053031;28;20045;-69
2022/08/03 10:11:43;;;;;;;1.88;1.33;;;;;;;;;;5052204;28;20052;-70
2022/08/03 10:14:17;;;;;;;11.90;2.35;;;;;;;;;;5052350;28;20049;-69
2022/08/03 10:16:46;;;;;;;2.05;1.50;;;;;;;;;;5045066;28;20077;-66
2022/08/03 10:19:14;;;;;;;1.50;1.40;;;;;;;;;;5051904;28;20598;-67
2022/08/03 10:21:47;;;;;;;1.50;1.40;;;;;;;;;;5052155;28;20049;-66
2022/08/03 10:24:13;;;;;;;1.55;1.45;;;;;;;;;;5051991;28;20522;-69
2022/08/03 10:26:40;;;;;;;1.75;1.20;;;;;;;;;;5040265;28;20049;-66
2022/08/03 10:29:25;;;;;;;1.65;1.30;;;;;;;;;;5064849;28;20522;-66
2022/08/03 10:31:53;;;;;;;1.75;1.23;;;;;;;;;;5067662;28;20049;-67
2022/08/03 10:34:28;;;;;;;;;;;;;;;;;;5036513;28;20128;-67
2022/08/03 10:36:57;;;;;;;1.17;1.08;;;;;;;;;;5036485;28;20007;-66
2022/08/03 10:39:28;;;;;;;1.15;1.05;;;;;;;;;;5024850;28;20389;-67
2022/08/03 10:41:57;;;;;;;1.10;1.00;;;;;;;;;;5052196;28;20420;-67
2022/08/03 10:44:31;;;;;;;4.55;2.72;;;;;;;;;;5033405;28;20595;-67
2022/08/03 10:46:58;;;;;;;1.75;1.20;;;;;;;;;;5050128;28;20059;-67
2022/08/03 10:49:25;;;;;;;1.90;1.40;;;;;;;;;;5016047;28;20555;-67
2022/08/03 10:52:01;;;;;;;3.25;1.40;;;;;;;;;;5034035;28;20053;-67
2022/08/03 10:57:42;;;;;;;1.10;1.10;;;;;;;;;;5049911;28;20519;-67
2022/08/03 11:00:26;;;;;;;1.20;1.10;;;;;;;;;;5031003;28;20132;-69
2022/08/03 11:03:13;;;;;;;1.48;1.00;;;;;;;;;;5038174;28;20140;-72
2022/08/03 11:05:45;;;;;;;5.32;1.15;;;;;;;;;;5032532;28;20041;-75
2022/08/03 11:08:33;;;;;;;1.35;1.10;;;;;;;;;;5027595;28;20057;-73
2022/08/03 11:11:27;;;;;;;1.23;1.10;;;;;;;;;;5030990;28;20056;-71
2022/08/03 11:14:06;;;;;;;1.63;1.17;;;;;;;;;;5038529;28;20064;-65
2022/08/03 11:16:39;;;;;;;2.22;1.00;;;;;;;;;;5042267;28;20053;-73
2022/08/03 11:19:09;;;;;;;1.30;1.20;;;;;;;;;;4993280;28;20460;-72
2022/08/03 11:21:51;;;;;;;1.73;1.35;;;;;;;;;;5043574;28;20052;-73
2022/08/03 11:24:36;;;;;;;1.25;1.23;;;;;;;;;;5043084;28;20516;-73
2022/08/03 11:27:15;;;;;;;1.95;1.50;;;;;;;;;;5043525;28;20574;-69
2022/08/03 11:30:00;;;;;;;1.85;1.10;;;;;;;;;;5039095;28;20049;-72
2022/08/03 11:32:36;;;;;;;3.22;1.38;;;;;;;;;;5041195;28;20048;-69
2022/08/03 11:35:11;;;;;;;1.50;1.38;;;;;;;;;;5043733;28;20053;-75
2022/08/03 11:37:53;;;;;;;2.85;1.60;;;;;;;;;;5024418;28;20144;-66
2022/08/03 11:40:52;;;;;;;1.50;1.40;;;;;;;;;;5042573;28;20045;-71
2022/08/03 11:43:28;;;;;;;1.60;1.42;;;;;;;;;;5046442;28;20049;-69
2022/08/03 11:46:04;;;;;;;2.38;1.20;;;;;;;;;;5048405;28;20046;-71
2022/08/03 11:48:36;;;;;;;1.50;1.38;;;;;;;;;;5048242;28;20504;-69
2022/08/03 11:51:05;;;;;;;2.28;1.45;;;;;;;;;;5045747;28;20057;-68
2022/08/03 11:53:33;;;;;;;1.50;1.40;;;;;;;;;;5048667;28;20045;-67
2022/08/03 11:56:07;;;;;;;1.33;1.20;;;;;;;;;;5045384;28;20056;-68
2022/08/03 11:58:47;;;;;;;1.30;1.20;;;;;;;;;;5050779;28;20486;-70
2022/08/03 12:01:33;;;;;;;1.30;1.20;;;;;;;;;;5049764;28;20471;-66
2022/08/03 12:04:04;;;;;;;1.55;1.45;;;;;;;;;;5050091;28;20721;-68
2022/08/03 12:06:53;;;;;;;2.05;1.20;;;;;;;;;;5032184;28;20068;-68
2022/08/03 12:09:17;;;;;;;1.98;1.40;;;;;;;;;;5049385;28;20049;-67
2022/08/03 12:11:48;;;;;;;3.20;1.58;;;;;;;;;;5049709;28;20045;-69
2022/08/03 12:14:25;;;;;;;1.63;1.30;;;;;;;;;;5048618;28;20099;-68
2022/08/03 12:17:12;;;;;;;2.38;1.05;;;;;;;;;;5033440;28;20045;-66
2022/08/03 12:19:42;;;;;;;1.50;1.40;;;;;;;;;;5030358;28;20400;-67
2022/08/03 12:22:08;;;;;;;1.30;1.23;;;;;;;;;;5050223;28;20056;-68
2022/08/03 12:24:44;;;;;;;1.45;1.17;;;;;;;;;;5030629;28;20045;-67
2022/08/03 12:27:23;;;;;;;1.40;1.30;;;;;;;;;;5047020;28;20297;-67
2022/08/03 12:29:52;;;;;;;3.40;1.30;;;;;;;;;;5045001;28;20053;-68
2022/08/03 12:32:27;;;;;;;1.85;1.75;;;;;;;;;;5045218;28;20048;-67
2022/08/03 12:34:58;;;;;;;1.33;1.23;;;;;;;;;;5047229;28;20149;-68
2022/08/03 12:37:26;;;;;;;1.38;1.27;;;;;;;;;;5047356;28;20053;-68
2022/08/03 12:39:55;;;;;;;2.00;1.77;;;;;;;;;;5027886;28;20071;-67
2022/08/03 12:42:35;;;;;;;1.52;1.20;;;;;;;;;;5046117;28;20060;-67
2022/08/03 12:45:35;;;;;;;1.67;1.48;;;;;;;;;;5046601;28;20059;-69
2022/08/03 12:48:02;;;;;;;1.38;1.10;;;;;;;;;;5012505;28;20049;-67
2022/08/03 12:50:31;;;;;;;1.27;1.10;;;;;;;;;;5046143;28;20056;-66
2022/08/03 12:52:58;;;;;;;1.73;1.10;;;;;;;;;;5044126;28;20503;-68
2022/08/03 12:55:32;;;;;;;1.60;1.40;;;;;;;;;;5029974;28;20077;-68
2022/08/03 12:58:32;;;;;;;1.42;1.08;;;;;;;;;;5045449;28;20639;-69
2022/08/03 13:00:59;;;;;;;1.38;1.00;;;;;;;;;;5043329;28;20056;-67
2022/08/03 13:03:40;;;;;;;1.52;1.38;;;;;;;;;;5027835;28;20041;-67
2022/08/03 13:06:19;;;;;;;1.67;1.10;;;;;;;;;;5043754;28;20057;-67
2022/08/03 13:08:47;;;;;;;1.45;1.15;;;;;;;;;;5043078;28;20041;-67
2022/08/03 13:11:23;;;;;;;2.67;1.02;;;;;;;;;;5025229;28;20496;-66
2022/08/03 13:14:10;;;;;;;2.65;1.20;;;;;;;;;;5041947;28;20524;-67
2022/08/03 13:16:46;;;;;;;1.30;1.20;;;;;;;;;;5043770;28;20135;-68
2022/08/03 13:19:12;;;;;;;2.15;1.23;;;;;;;;;;5027680;28;20049;-67
2022/08/03 13:21:41;;;;;;;2.90;1.60;;;;;;;;;;5044349;28;20075;-68
2022/08/03 13:24:28;;;;;;;1.48;1.20;;;;;;;;;;5043207;28;20073;-68
2022/08/03 13:26:55;;;;;;;1.05;0.90;;;;;;;;;;5030132;28;20053;-68
2022/08/03 13:29:22;;;;;;;1.15;1.08;;;;;;;;;;5045241;28;20049;-67
2022/08/03 13:31:49;;;;;;;2.80;1.38;;;;;;;;;;5045392;28;20055;-68
2022/08/03 13:34:17;;;;;;;2.50;2.30;;;;;;;;;;5046313;28;20140;-68
2022/08/03 13:36:49;;;;;;;1.52;1.42;;;;;;;;;;5044937;28;20057;-68
2022/08/03 13:39:34;;;;;;;1.10;1.00;;;;;;;;;;5042106;28;20487;-68
2022/08/03 13:42:20;;;;;;;1.92;1.13;;;;;;;;;;5044238;28;20079;-68
2022/08/03 13:44:47;;;;;;;1.40;1.30;;;;;;;;;;5044584;28;20499;-68
2022/08/03 13:47:14;;;;;;;1.15;1.13;;;;;;;;;;5026023;28;20045;-67
2022/08/03 13:49:40;;;;;;;1.58;1.20;;;;;;;;;;5044883;28;20063;-67
2022/08/03 13:52:20;;;;;;;1.15;1.05;;;;;;;;;;5044447;28;20052;-69
2022/08/03 13:54:46;;;;;;;1.38;1.08;;;;;;;;;;5046555;28;20411;-67
2022/08/03 13:57:13;;;;;;;2.45;1.17;;;;;;;;;;5046190;28;20041;-67
2022/08/03 14:00:01;;;;;;;1.05;1.02;;;;;;;;;;5051477;28;20044;-68
2022/08/03 14:02:28;;;;;;;1.67;0.80;;;;;;;;;;5053412;28;20079;-68
2022/08/03 14:04:55;;;;;;;1.13;1.00;;;;;;;;;;5052897;28;20056;-68
2022/08/03 14:07:21;;;;;;;1.00;0.90;;;;;;;;;;5053985;28;20045;-68
2022/08/03 14:09:48;;;;;;;2.35;1.85;;;;;;;;;;5035927;28;20065;-69
2022/08/03 14:12:15;;;;;;;1.20;1.10;;;;;;;;;;5053456;28;20133;-67
2022/08/03 14:14:41;;;;;;;0.90;0.90;;;;;;;;;;5054105;28;20052;-68
2022/08/03 14:17:08;;;;;;;1.20;1.10;;;;;;;;;;5051934;28;20053;-70
2022/08/03 14:19:35;;;;;;;1.27;1.17;;;;;;;;;;5046035;28;20048;-69
2022/08/03 14:22:19;;;;;;;8.10;7.45;;;;;;;;;;5049186;28;20048;-68
2022/08/03 14:24:45;;;;;;;1.92;1.42;;;;;;;;;;5041374;28;20049;-68
2022/08/03 14:27:12;;;;;;;1.27;1.17;;;;;;;;;;5041142;28;20042;-68
2022/08/03 14:29:38;;;;;;;1.35;1.20;;;;;;;;;;5040583;28;20045;-67
2022/08/03 14:32:05;;;;;;;1.00;0.90;;;;;;;;;;5043029;28;20500;-67
2022/08/03 14:34:38;;;;;;;21.08;18.90;;;;;;;;;;5038397;28;20136;-67
2022/08/03 14:37:05;;;;;;;1.48;1.38;;;;;;;;;;5040369;28;20496;-67
2022/08/03 14:39:31;;;;;;;1.60;1.30;;;;;;;;;;5042719;28;20582;-67
2022/08/03 14:42:19;;;;;;;1.20;1.10;;;;;;;;;;5040608;28;20474;-67
2022/08/03 14:44:46;;;;;;;235.73;211.25;;;;;;;;;;5039572;28;20041;-66
2022/08/03 14:47:13;;;;;;;418.83;376.48;;;;;;;;;;5041284;28;20057;-66
2022/08/03 14:49:40;;;;;;;69.77;62.53;;;;;;;;;;5046249;28;20160;-67
2022/08/03 14:52:27;;;;;;;13.65;12.35;;;;;;;;;;5044064;28;20386;-67
2022/08/03 14:54:53;;;;;;;14.40;12.95;;;;;;;;;;5040717;28;20053;-67
2022/08/03 14:57:20;;;;;;;27.95;23.90;;;;;;;;;;5030093;28;20155;-66
2022/08/03 14:59:47;;;;;;;5.32;3.55;;;;;;;;;;5039882;28;20085;-66
2022/08/03 15:02:23;;;;;;;4.65;3.97;;;;;;;;;;5043232;28;20053;-66
2022/08/03 15:04:50;;;;;;;5.20;3.35;;;;;;;;;;5041512;28;20134;-66
2022/08/03 15:07:19;;;;;;;2.72;2.53;;;;;;;;;;5039271;28;20496;-66
2022/08/03 15:09:46;;;;;;;2.60;2.40;;;;;;;;;;5044719;28;20045;-66
2022/08/03 15:12:13;;;;;;;2.63;2.40;;;;;;;;;;5044128;28;20419;-66
2022/08/03 15:14:39;;;;;;;3.05;1.75;;;;;;;;;;5041441;28;20042;-66
2022/08/03 15:17:06;;;;;;;1.65;1.40;;;;;;;;;;5036628;28;20045;-66
2022/08/03 15:19:33;;;;;;;2.00;1.50;;;;;;;;;;5038874;28;20056;-66